sensor_id;sensor_type;location;lat;lon;timestamp;temperature;humidity
37528;DHT22;23372;52.050;4.810;2023-02-26T00:02:03;0.40;99.90
37528;DHT22;23372;52.050;4.810;2023-02-26T00:04:29;0.50;99.90
37528;DHT22;23372;52.050;4.810;2023-02-26T00:06:54;0.50;99.90
37528;DHT22;23372;52.050;4.810;2023-02-26T00:09:21;0.40;99.90
37528;DHT22;23372;52.050;4.810;2023-02-26T00:11:47;0.40;99.90
37528;DHT22;23372;52.050;4.810;2023-02-26T00:14:14;0.40;99.90
37528;DHT22;23372;52.050;4.810;2023-02-26T00:16:41;0.40;99.90
37528;DHT22;23372;52.050;4.810;2023-02-26T00:19:09;0.50;99.90
37528;DHT22;23372;52.050;4.810;2023-02-26T00:21:36;0.50;99.90
37528;DHT22;23372;52.050;4.810;2023-02-26T00:24:02;0.60;99.90
37528;DHT22;23372;52.050;4.810;2023-02-26T00:26:29;0.70;99.90
37528;DHT22;23372;52.050;4.810;2023-02-26T00:28:56;0.90;99.90
37528;DHT22;23372;52.050;4.810;2023-02-26T00:31:22;1.00;99.90
37528;DHT22;23372;52.050;4.810;2023-02-26T00:33:55;1.20;99.90
37528;DHT22;23372;52.050;4.810;2023-02-26T00:36:28;1.40;99.90
37528;DHT22;23372;52.050;4.810;2023-02-26T00:42:01;1.50;99.90
37528;DHT22;23372;52.050;4.810;2023-02-26T00:44:27;1.60;99.90
37528;DHT22;23372;52.050;4.810;2023-02-26T00:55:27;1.90;99.90
37528;DHT22;23372;52.050;4.810;2023-02-26T00:57:53;2.00;99.90
37528;DHT22;23372;52.050;4.810;2023-02-26T01:00:19;2.00;99.90
37528;DHT22;23372;52.050;4.810;2023-02-26T01:02:45;2.00;99.90
37528;DHT22;23372;52.050;4.810;2023-02-26T01:05:11;2.00;99.90
37528;DHT22;23372;52.050;4.810;2023-02-26T01:07:50;2.10;99.90
37528;DHT22;23372;52.050;4.810;2023-02-26T01:10:19;2.10;99.90
37528;DHT22;23372;52.050;4.810;2023-02-26T01:12:45;2.10;99.90
37528;DHT22;23372;52.050;4.810;2023-02-26T01:15:11;2.20;99.90
37528;DHT22;23372;52.050;4.810;2023-02-26T01:18:05;2.20;99.90
37528;DHT22;23372;52.050;4.810;2023-02-26T01:20:59;2.20;99.90
37528;DHT22;23372;52.050;4.810;2023-02-26T01:23:34;2.20;99.90
37528;DHT22;23372;52.050;4.810;2023-02-26T01:26:18;2.20;99.90
37528;DHT22;23372;52.050;4.810;2023-02-26T01:28:45;2.20;99.90
37528;DHT22;23372;52.050;4.810;2023-02-26T01:31:42;2.20;99.90
37528;DHT22;23372;52.050;4.810;2023-02-26T01:34:18;2.20;99.90
37528;DHT22;23372;52.050;4.810;2023-02-26T01:36:53;2.20;99.90
37528;DHT22;23372;52.050;4.810;2023-02-26T01:39:28;2.30;99.90
37528;DHT22;23372;52.050;4.810;2023-02-26T01:42:18;2.20;99.90
37528;DHT22;23372;52.050;4.810;2023-02-26T01:45:14;2.20;99.90
37528;DHT22;23372;52.050;4.810;2023-02-26T01:47:52;2.10;99.90
37528;DHT22;23372;52.050;4.810;2023-02-26T01:50:21;2.10;99.90
37528;DHT22;23372;52.050;4.810;2023-02-26T01:55:21;2.10;99.90
37528;DHT22;23372;52.050;4.810;2023-02-26T01:57:48;2.00;99.90
37528;DHT22;23372;52.050;4.810;2023-02-26T02:00:15;2.00;99.90
37528;DHT22;23372;52.050;4.810;2023-02-26T02:02:41;1.90;99.90
37528;DHT22;23372;52.050;4.810;2023-02-26T02:05:12;1.90;99.90
37528;DHT22;23372;52.050;4.810;2023-02-26T02:07:39;1.80;99.90
37528;DHT22;23372;52.050;4.810;2023-02-26T02:10:05;1.80;99.90
37528;DHT22;23372;52.050;4.810;2023-02-26T02:12:42;1.70;99.90
37528;DHT22;23372;52.050;4.810;2023-02-26T02:15:21;1.70;99.90
37528;DHT22;23372;52.050;4.810;2023-02-26T02:18:09;1.70;99.90
37528;DHT22;23372;52.050;4.810;2023-02-26T02:32:07;1.50;99.90
37528;DHT22;23372;52.050;4.810;2023-02-26T02:34:39;1.40;99.90
37528;DHT22;23372;52.050;4.810;2023-02-26T02:37:31;1.40;99.90
37528;DHT22;23372;52.050;4.810;2023-02-26T02:40:14;1.40;99.90
37528;DHT22;23372;52.050;4.810;2023-02-26T02:43:05;1.40;99.90
37528;DHT22;23372;52.050;4.810;2023-02-26T02:45:55;1.40;99.90
37528;DHT22;23372;52.050;4.810;2023-02-26T02:48:28;1.30;99.90
37528;DHT22;23372;52.050;4.810;2023-02-26T02:51:18;1.30;99.90
37528;DHT22;23372;52.050;4.810;2023-02-26T02:53:56;1.20;99.90
37528;DHT22;23372;52.050;4.810;2023-02-26T02:56:27;1.20;99.90
37528;DHT22;23372;52.050;4.810;2023-02-26T02:58:57;1.20;99.90
37528;DHT22;23372;52.050;4.810;2023-02-26T03:01:25;1.20;99.90
37528;DHT22;23372;52.050;4.810;2023-02-26T03:04:07;1.20;99.90
37528;DHT22;23372;52.050;4.810;2023-02-26T03:06:33;1.20;99.90
37528;DHT22;23372;52.050;4.810;2023-02-26T03:09:00;1.20;99.90
37528;DHT22;23372;52.050;4.810;2023-02-26T03:11:28;1.20;99.90
37528;DHT22;23372;52.050;4.810;2023-02-26T03:13:54;1.10;99.90
37528;DHT22;23372;52.050;4.810;2023-02-26T03:16:45;1.10;99.90
37528;DHT22;23372;52.050;4.810;2023-02-26T03:19:35;1.20;99.90
37528;DHT22;23372;52.050;4.810;2023-02-26T03:22:40;1.10;99.90
37528;DHT22;23372;52.050;4.810;2023-02-26T03:25:08;1.10;99.90
37528;DHT22;23372;52.050;4.810;2023-02-26T03:27:46;1.00;99.90
37528;DHT22;23372;52.050;4.810;2023-02-26T03:30:18;1.00;99.90
37528;DHT22;23372;52.050;4.810;2023-02-26T03:33:13;1.00;99.90
37528;DHT22;23372;52.050;4.810;2023-02-26T03:35:48;0.90;99.90
37528;DHT22;23372;52.050;4.810;2023-02-26T03:38:46;0.90;99.90
37528;DHT22;23372;52.050;4.810;2023-02-26T03:41:13;0.80;99.90
37528;DHT22;23372;52.050;4.810;2023-02-26T03:43:46;0.80;99.90
37528;DHT22;23372;52.050;4.810;2023-02-26T03:46:17;0.80;99.90
37528;DHT22;23372;52.050;4.810;2023-02-26T03:48:45;0.80;99.90
37528;DHT22;23372;52.050;4.810;2023-02-26T03:51:13;0.80;99.90
37528;DHT22;23372;52.050;4.810;2023-02-26T03:53:48;0.80;99.90
37528;DHT22;23372;52.050;4.810;2023-02-26T03:58:52;0.80;99.90
37528;DHT22;23372;52.050;4.810;2023-02-26T04:01:34;0.80;99.90
37528;DHT22;23372;52.050;4.810;2023-02-26T04:04:18;0.90;99.90
37528;DHT22;23372;52.050;4.810;2023-02-26T04:06:46;0.90;99.90
37528;DHT22;23372;52.050;4.810;2023-02-26T04:09:12;0.90;99.90
37528;DHT22;23372;52.050;4.810;2023-02-26T04:11:38;0.90;99.90
37528;DHT22;23372;52.050;4.810;2023-02-26T04:14:04;0.80;99.90
37528;DHT22;23372;52.050;4.810;2023-02-26T04:16:30;0.80;99.90
37528;DHT22;23372;52.050;4.810;2023-02-26T04:18:55;0.80;99.90
37528;DHT22;23372;52.050;4.810;2023-02-26T04:21:21;0.80;99.90
37528;DHT22;23372;52.050;4.810;2023-02-26T04:23:47;0.80;99.90
37528;DHT22;23372;52.050;4.810;2023-02-26T04:26:13;0.90;99.90
37528;DHT22;23372;52.050;4.810;2023-02-26T04:28:39;0.90;99.90
37528;DHT22;23372;52.050;4.810;2023-02-26T04:31:06;0.90;99.90
37528;DHT22;23372;52.050;4.810;2023-02-26T04:33:32;0.90;99.90
37528;DHT22;23372;52.050;4.810;2023-02-26T04:35:59;0.90;99.90
37528;DHT22;23372;52.050;4.810;2023-02-26T04:38:24;0.90;99.90
37528;DHT22;23372;52.050;4.810;2023-02-26T04:40:50;0.80;99.90
37528;DHT22;23372;52.050;4.810;2023-02-26T04:43:16;0.80;99.90
37528;DHT22;23372;52.050;4.810;2023-02-26T04:45:45;0.80;99.90
37528;DHT22;23372;52.050;4.810;2023-02-26T04:48:11;0.80;99.90
37528;DHT22;23372;52.050;4.810;2023-02-26T04:50:37;0.80;99.90
37528;DHT22;23372;52.050;4.810;2023-02-26T04:53:02;0.80;99.90
37528;DHT22;23372;52.050;4.810;2023-02-26T04:55:28;0.80;99.90
37528;DHT22;23372;52.050;4.810;2023-02-26T04:57:53;0.80;99.90
37528;DHT22;23372;52.050;4.810;2023-02-26T05:00:19;0.80;99.90
37528;DHT22;23372;52.050;4.810;2023-02-26T05:02:45;0.70;99.90
37528;DHT22;23372;52.050;4.810;2023-02-26T05:05:10;0.70;99.90
37528;DHT22;23372;52.050;4.810;2023-02-26T05:07:36;0.80;99.90
37528;DHT22;23372;52.050;4.810;2023-02-26T05:10:02;0.80;99.90
37528;DHT22;23372;52.050;4.810;2023-02-26T05:12:28;0.70;99.90
37528;DHT22;23372;52.050;4.810;2023-02-26T05:14:54;0.70;99.90
37528;DHT22;23372;52.050;4.810;2023-02-26T05:17:19;0.70;99.90
37528;DHT22;23372;52.050;4.810;2023-02-26T05:19:45;0.60;99.90
37528;DHT22;23372;52.050;4.810;2023-02-26T05:22:10;0.60;99.90
37528;DHT22;23372;52.050;4.810;2023-02-26T05:24:36;0.50;99.90
37528;DHT22;23372;52.050;4.810;2023-02-26T05:27:02;0.50;99.90
37528;DHT22;23372;52.050;4.810;2023-02-26T05:29:28;0.50;99.90
37528;DHT22;23372;52.050;4.810;2023-02-26T05:31:53;0.40;99.90
37528;DHT22;23372;52.050;4.810;2023-02-26T05:34:19;0.40;99.90
37528;DHT22;23372;52.050;4.810;2023-02-26T05:36:44;0.40;99.90
37528;DHT22;23372;52.050;4.810;2023-02-26T05:39:10;0.40;99.90
37528;DHT22;23372;52.050;4.810;2023-02-26T05:41:35;0.30;99.90
37528;DHT22;23372;52.050;4.810;2023-02-26T05:44:01;0.30;99.90
37528;DHT22;23372;52.050;4.810;2023-02-26T05:46:27;0.20;99.90
37528;DHT22;23372;52.050;4.810;2023-02-26T05:48:52;0.20;99.90
37528;DHT22;23372;52.050;4.810;2023-02-26T05:51:18;0.20;99.90
37528;DHT22;23372;52.050;4.810;2023-02-26T05:53:44;0.20;99.90
37528;DHT22;23372;52.050;4.810;2023-02-26T05:56:10;0.20;99.90
37528;DHT22;23372;52.050;4.810;2023-02-26T05:58:36;0.20;99.90
37528;DHT22;23372;52.050;4.810;2023-02-26T06:01:02;0.20;99.90
37528;DHT22;23372;52.050;4.810;2023-02-26T06:03:27;0.20;99.90
37528;DHT22;23372;52.050;4.810;2023-02-26T06:05:53;0.20;99.90
37528;DHT22;23372;52.050;4.810;2023-02-26T06:08:19;0.20;99.90
37528;DHT22;23372;52.050;4.810;2023-02-26T06:10:44;0.20;99.90
37528;DHT22;23372;52.050;4.810;2023-02-26T06:13:10;0.30;99.90
37528;DHT22;23372;52.050;4.810;2023-02-26T06:15:35;0.30;99.90
37528;DHT22;23372;52.050;4.810;2023-02-26T06:18:01;0.30;99.90
37528;DHT22;23372;52.050;4.810;2023-02-26T06:20:27;0.20;99.90
37528;DHT22;23372;52.050;4.810;2023-02-26T06:22:52;0.30;99.90
37528;DHT22;23372;52.050;4.810;2023-02-26T06:25:18;0.30;99.90
37528;DHT22;23372;52.050;4.810;2023-02-26T06:27:44;0.30;99.90
37528;DHT22;23372;52.050;4.810;2023-02-26T06:30:10;0.30;99.90
37528;DHT22;23372;52.050;4.810;2023-02-26T06:32:36;0.30;99.90
37528;DHT22;23372;52.050;4.810;2023-02-26T06:35:01;0.40;99.90
37528;DHT22;23372;52.050;4.810;2023-02-26T06:37:27;0.40;99.90
37528;DHT22;23372;52.050;4.810;2023-02-26T06:39:52;0.40;99.90
37528;DHT22;23372;52.050;4.810;2023-02-26T06:42:18;0.40;99.90
37528;DHT22;23372;52.050;4.810;2023-02-26T06:44:43;0.40;99.90
37528;DHT22;23372;52.050;4.810;2023-02-26T06:47:09;0.50;99.90
37528;DHT22;23372;52.050;4.810;2023-02-26T06:49:34;0.50;99.90
37528;DHT22;23372;52.050;4.810;2023-02-26T06:52:00;0.60;99.90
37528;DHT22;23372;52.050;4.810;2023-02-26T06:54:25;0.60;99.90
37528;DHT22;23372;52.050;4.810;2023-02-26T06:56:51;0.70;99.90
37528;DHT22;23372;52.050;4.810;2023-02-26T06:59:17;0.70;99.90
37528;DHT22;23372;52.050;4.810;2023-02-26T07:01:42;0.80;99.90
37528;DHT22;23372;52.050;4.810;2023-02-26T07:04:08;0.90;99.90
37528;DHT22;23372;52.050;4.810;2023-02-26T07:06:34;0.90;99.90
37528;DHT22;23372;52.050;4.810;2023-02-26T07:08:59;1.00;99.90
37528;DHT22;23372;52.050;4.810;2023-02-26T07:11:25;1.10;99.90
37528;DHT22;23372;52.050;4.810;2023-02-26T07:13:50;1.10;99.90
37528;DHT22;23372;52.050;4.810;2023-02-26T07:16:16;1.10;99.90
37528;DHT22;23372;52.050;4.810;2023-02-26T07:18:42;1.20;99.90
37528;DHT22;23372;52.050;4.810;2023-02-26T07:21:07;1.30;99.90
37528;DHT22;23372;52.050;4.810;2023-02-26T07:23:33;1.60;99.90
37528;DHT22;23372;52.050;4.810;2023-02-26T07:25:59;1.90;99.90
37528;DHT22;23372;52.050;4.810;2023-02-26T07:28:24;2.30;99.90
37528;DHT22;23372;52.050;4.810;2023-02-26T07:30:50;2.70;99.90
37528;DHT22;23372;52.050;4.810;2023-02-26T07:33:18;3.00;99.90
37528;DHT22;23372;52.050;4.810;2023-02-26T07:35:43;2.80;99.90
37528;DHT22;23372;52.050;4.810;2023-02-26T07:38:09;2.80;99.90
37528;DHT22;23372;52.050;4.810;2023-02-26T07:40:34;2.90;99.90
37528;DHT22;23372;52.050;4.810;2023-02-26T07:43:00;2.90;99.90
37528;DHT22;23372;52.050;4.810;2023-02-26T07:45:25;2.90;99.90
37528;DHT22;23372;52.050;4.810;2023-02-26T07:47:52;3.50;99.90
37528;DHT22;23372;52.050;4.810;2023-02-26T07:50:18;4.60;99.90
37528;DHT22;23372;52.050;4.810;2023-02-26T07:52:44;5.40;99.90
37528;DHT22;23372;52.050;4.810;2023-02-26T07:55:10;5.60;99.90
37528;DHT22;23372;52.050;4.810;2023-02-26T07:57:36;6.30;99.90
37528;DHT22;23372;52.050;4.810;2023-02-26T08:00:02;6.20;99.90
37528;DHT22;23372;52.050;4.810;2023-02-26T08:02:29;5.70;99.90
37528;DHT22;23372;52.050;4.810;2023-02-26T08:04:54;5.00;99.90
37528;DHT22;23372;52.050;4.810;2023-02-26T08:07:20;4.70;99.90
37528;DHT22;23372;52.050;4.810;2023-02-26T08:09:45;4.90;99.90
37528;DHT22;23372;52.050;4.810;2023-02-26T08:12:11;5.20;99.90
37528;DHT22;23372;52.050;4.810;2023-02-26T08:14:37;4.80;99.90
37528;DHT22;23372;52.050;4.810;2023-02-26T08:17:02;3.90;99.90
37528;DHT22;23372;52.050;4.810;2023-02-26T08:19:28;3.30;99.90
37528;DHT22;23372;52.050;4.810;2023-02-26T08:21:53;3.40;99.90
37528;DHT22;23372;52.050;4.810;2023-02-26T08:24:20;3.50;99.90
37528;DHT22;23372;52.050;4.810;2023-02-26T08:26:46;3.50;99.90
37528;DHT22;23372;52.050;4.810;2023-02-26T08:29:12;3.60;99.90
37528;DHT22;23372;52.050;4.810;2023-02-26T08:31:38;3.80;99.90
37528;DHT22;23372;52.050;4.810;2023-02-26T08:34:03;4.00;99.90
37528;DHT22;23372;52.050;4.810;2023-02-26T08:36:30;4.40;99.90
37528;DHT22;23372;52.050;4.810;2023-02-26T08:38:56;5.30;99.90
37528;DHT22;23372;52.050;4.810;2023-02-26T08:41:21;5.80;99.90
37528;DHT22;23372;52.050;4.810;2023-02-26T08:43:47;5.60;99.90
37528;DHT22;23372;52.050;4.810;2023-02-26T08:46:13;5.30;99.90
37528;DHT22;23372;52.050;4.810;2023-02-26T08:48:39;5.30;99.90
37528;DHT22;23372;52.050;4.810;2023-02-26T08:51:04;5.90;99.90
37528;DHT22;23372;52.050;4.810;2023-02-26T08:53:30;6.20;99.90
37528;DHT22;23372;52.050;4.810;2023-02-26T08:55:55;5.80;99.90
37528;DHT22;23372;52.050;4.810;2023-02-26T08:58:21;5.20;99.90
37528;DHT22;23372;52.050;4.810;2023-02-26T09:00:47;5.00;99.90
37528;DHT22;23372;52.050;4.810;2023-02-26T09:03:12;4.70;99.90
37528;DHT22;23372;52.050;4.810;2023-02-26T09:05:38;4.50;99.90
37528;DHT22;23372;52.050;4.810;2023-02-26T09:08:06;4.90;99.90
37528;DHT22;23372;52.050;4.810;2023-02-26T09:10:31;4.80;99.90
37528;DHT22;23372;52.050;4.810;2023-02-26T09:12:57;5.50;99.90
37528;DHT22;23372;52.050;4.810;2023-02-26T09:15:23;5.20;99.90
37528;DHT22;23372;52.050;4.810;2023-02-26T09:17:48;4.80;99.90
37528;DHT22;23372;52.050;4.810;2023-02-26T09:20:16;5.00;99.90
37528;DHT22;23372;52.050;4.810;2023-02-26T09:22:41;4.40;99.90
37528;DHT22;23372;52.050;4.810;2023-02-26T09:25:08;4.70;99.90
37528;DHT22;23372;52.050;4.810;2023-02-26T09:27:33;5.20;99.90
37528;DHT22;23372;52.050;4.810;2023-02-26T09:30:00;5.10;99.90
37528;DHT22;23372;52.050;4.810;2023-02-26T09:32:26;5.10;99.90
37528;DHT22;23372;52.050;4.810;2023-02-26T09:34:51;4.60;99.90
37528;DHT22;23372;52.050;4.810;2023-02-26T09:37:17;4.80;99.90
37528;DHT22;23372;52.050;4.810;2023-02-26T09:39:43;5.00;99.90
37528;DHT22;23372;52.050;4.810;2023-02-26T09:44:46;5.10;99.90
37528;DHT22;23372;52.050;4.810;2023-02-26T09:47:20;4.80;99.90
37528;DHT22;23372;52.050;4.810;2023-02-26T09:50:03;4.80;99.90
37528;DHT22;23372;52.050;4.810;2023-02-26T09:52:46;5.00;99.90
37528;DHT22;23372;52.050;4.810;2023-02-26T09:55:37;5.50;99.90
37528;DHT22;23372;52.050;4.810;2023-02-26T09:58:09;5.70;99.90
37528;DHT22;23372;52.050;4.810;2023-02-26T10:00:43;5.50;99.90
37528;DHT22;23372;52.050;4.810;2023-02-26T10:14:27;6.10;99.90
37528;DHT22;23372;52.050;4.810;2023-02-26T10:17:04;6.70;99.90
37528;DHT22;23372;52.050;4.810;2023-02-26T10:19:36;7.60;99.90
37528;DHT22;23372;52.050;4.810;2023-02-26T10:22:25;8.10;99.90
37528;DHT22;23372;52.050;4.810;2023-02-26T10:25:01;8.40;99.90
37528;DHT22;23372;52.050;4.810;2023-02-26T10:27:41;8.80;99.90
37528;DHT22;23372;52.050;4.810;2023-02-26T10:30:30;9.40;99.90
37528;DHT22;23372;52.050;4.810;2023-02-26T10:33:05;8.50;99.90
37528;DHT22;23372;52.050;4.810;2023-02-26T10:35:36;8.10;99.90
37528;DHT22;23372;52.050;4.810;2023-02-26T10:38:16;7.80;99.90
37528;DHT22;23372;52.050;4.810;2023-02-26T10:40:49;7.90;99.90
37528;DHT22;23372;52.050;4.810;2023-02-26T10:43:32;7.80;99.90
37528;DHT22;23372;52.050;4.810;2023-02-26T10:48:59;7.70;99.90
37528;DHT22;23372;52.050;4.810;2023-02-26T10:51:33;8.00;99.90
37528;DHT22;23372;52.050;4.810;2023-02-26T10:54:18;9.10;99.90
37528;DHT22;23372;52.050;4.810;2023-02-26T10:56:45;8.40;99.90
37528;DHT22;23372;52.050;4.810;2023-02-26T10:59:11;7.70;99.90
37528;DHT22;23372;52.050;4.810;2023-02-26T11:01:36;8.00;99.90
37528;DHT22;23372;52.050;4.810;2023-02-26T11:04:17;8.90;99.90
37528;DHT22;23372;52.050;4.810;2023-02-26T11:09:36;8.20;99.90
37528;DHT22;23372;52.050;4.810;2023-02-26T11:14:38;6.60;99.90
37528;DHT22;23372;52.050;4.810;2023-02-26T11:17:11;6.40;99.90
37528;DHT22;23372;52.050;4.810;2023-02-26T11:19:43;6.40;99.90
37528;DHT22;23372;52.050;4.810;2023-02-26T11:22:14;6.20;99.90
37528;DHT22;23372;52.050;4.810;2023-02-26T11:24:43;6.00;99.90
37528;DHT22;23372;52.050;4.810;2023-02-26T11:27:13;5.70;99.90
37528;DHT22;23372;52.050;4.810;2023-02-26T11:29:42;5.60;99.90
37528;DHT22;23372;52.050;4.810;2023-02-26T11:32:20;5.50;99.90
37528;DHT22;23372;52.050;4.810;2023-02-26T11:34:49;5.60;99.90
37528;DHT22;23372;52.050;4.810;2023-02-26T11:37:29;5.70;99.90
37528;DHT22;23372;52.050;4.810;2023-02-26T11:39:58;5.90;99.90
37528;DHT22;23372;52.050;4.810;2023-02-26T11:42:25;6.10;99.90
37528;DHT22;23372;52.050;4.810;2023-02-26T11:44:51;6.10;99.90
37528;DHT22;23372;52.050;4.810;2023-02-26T11:47:25;5.90;99.90
37528;DHT22;23372;52.050;4.810;2023-02-26T11:49:54;5.90;99.90
37528;DHT22;23372;52.050;4.810;2023-02-26T11:52:34;6.00;99.90
37528;DHT22;23372;52.050;4.810;2023-02-26T11:55:02;6.10;99.90
37528;DHT22;23372;52.050;4.810;2023-02-26T11:57:30;6.00;99.90
37528;DHT22;23372;52.050;4.810;2023-02-26T11:59:58;6.10;99.90
37528;DHT22;23372;52.050;4.810;2023-02-26T12:02:26;6.10;99.90
37528;DHT22;23372;52.050;4.810;2023-02-26T12:04:55;6.00;99.90
37528;DHT22;23372;52.050;4.810;2023-02-26T12:07:22;6.00;99.90
37528;DHT22;23372;52.050;4.810;2023-02-26T12:09:48;5.90;99.90
37528;DHT22;23372;52.050;4.810;2023-02-26T12:15:06;6.20;99.90
37528;DHT22;23372;52.050;4.810;2023-02-26T12:17:53;6.50;99.90
37528;DHT22;23372;52.050;4.810;2023-02-26T12:28:45;6.40;99.90
37528;DHT22;23372;52.050;4.810;2023-02-26T12:31:21;6.60;99.90
37528;DHT22;23372;52.050;4.810;2023-02-26T12:37:31;6.60;99.90
37528;DHT22;23372;52.050;4.810;2023-02-26T12:49:06;5.90;99.90
37528;DHT22;23372;52.050;4.810;2023-02-26T12:54:41;6.10;99.90
37528;DHT22;23372;52.050;4.810;2023-02-26T12:57:15;6.10;99.90
37528;DHT22;23372;52.050;4.810;2023-02-26T13:16:56;6.30;99.90
37528;DHT22;23372;52.050;4.810;2023-02-26T13:19:49;6.10;99.90
37528;DHT22;23372;52.050;4.810;2023-02-26T13:22:25;5.90;99.90
37528;DHT22;23372;52.050;4.810;2023-02-26T13:27:52;6.00;99.90
37528;DHT22;23372;52.050;4.810;2023-02-26T13:30:41;6.00;99.90
37528;DHT22;23372;52.050;4.810;2023-02-26T13:33:19;6.00;99.90
37528;DHT22;23372;52.050;4.810;2023-02-26T13:35:46;6.10;99.90
37528;DHT22;23372;52.050;4.810;2023-02-26T13:38:34;6.30;99.90
37528;DHT22;23372;52.050;4.810;2023-02-26T13:41:04;6.20;99.90
37528;DHT22;23372;52.050;4.810;2023-02-26T13:52:25;6.00;99.90
37528;DHT22;23372;52.050;4.810;2023-02-26T13:54:52;6.20;99.90
37528;DHT22;23372;52.050;4.810;2023-02-26T14:00:32;6.30;99.90
37528;DHT22;23372;52.050;4.810;2023-02-26T14:03:11;6.30;99.90
37528;DHT22;23372;52.050;4.810;2023-02-26T14:08:43;6.10;99.90
37528;DHT22;23372;52.050;4.810;2023-02-26T14:14:08;6.10;99.90
37528;DHT22;23372;52.050;4.810;2023-02-26T14:16:35;6.10;99.90
37528;DHT22;23372;52.050;4.810;2023-02-26T14:19:18;6.20;99.90
37528;DHT22;23372;52.050;4.810;2023-02-26T14:21:52;6.30;99.90
37528;DHT22;23372;52.050;4.810;2023-02-26T14:24:31;6.20;99.90
37528;DHT22;23372;52.050;4.810;2023-02-26T14:29:41;6.20;99.90
37528;DHT22;23372;52.050;4.810;2023-02-26T14:35:26;6.20;99.90
37528;DHT22;23372;52.050;4.810;2023-02-26T14:37:27;6.30;99.90
37528;DHT22;23372;52.050;4.810;2023-02-26T14:40:04;6.30;99.90
37528;DHT22;23372;52.050;4.810;2023-02-26T14:42:53;6.30;99.90
37528;DHT22;23372;52.050;4.810;2023-02-26T14:45:29;6.20;99.90
37528;DHT22;23372;52.050;4.810;2023-02-26T14:48:00;6.30;99.90
37528;DHT22;23372;52.050;4.810;2023-02-26T14:50:35;6.20;99.90
37528;DHT22;23372;52.050;4.810;2023-02-26T15:01:15;6.30;99.90
37528;DHT22;23372;52.050;4.810;2023-02-26T15:06:42;6.50;99.90
37528;DHT22;23372;52.050;4.810;2023-02-26T15:09:26;6.50;99.90
37528;DHT22;23372;52.050;4.810;2023-02-26T15:14:55;6.50;99.90
37528;DHT22;23372;52.050;4.810;2023-02-26T15:25:41;6.40;99.90
37528;DHT22;23372;52.050;4.810;2023-02-26T15:28:33;6.50;99.90
37528;DHT22;23372;52.050;4.810;2023-02-26T15:31:00;6.50;99.90
37528;DHT22;23372;52.050;4.810;2023-02-26T15:33:27;6.50;99.90
37528;DHT22;23372;52.050;4.810;2023-02-26T15:35:54;6.40;99.90
37528;DHT22;23372;52.050;4.810;2023-02-26T15:38:20;6.30;99.90
37528;DHT22;23372;52.050;4.810;2023-02-26T15:40:48;6.30;99.90
37528;DHT22;23372;52.050;4.810;2023-02-26T15:43:22;6.30;99.90
37528;DHT22;23372;52.050;4.810;2023-02-26T15:45:52;6.30;99.90
37528;DHT22;23372;52.050;4.810;2023-02-26T15:48:33;6.30;99.90
37528;DHT22;23372;52.050;4.810;2023-02-26T15:51:03;6.20;99.90
37528;DHT22;23372;52.050;4.810;2023-02-26T15:53:43;6.20;99.90
37528;DHT22;23372;52.050;4.810;2023-02-26T15:56:20;6.10;99.90
37528;DHT22;23372;52.050;4.810;2023-02-26T15:58:53;6.00;99.90
37528;DHT22;23372;52.050;4.810;2023-02-26T16:01:23;6.00;99.90
37528;DHT22;23372;52.050;4.810;2023-02-26T16:03:51;5.90;99.90
37528;DHT22;23372;52.050;4.810;2023-02-26T16:06:33;5.80;99.90
37528;DHT22;23372;52.050;4.810;2023-02-26T16:09:00;5.70;99.90
37528;DHT22;23372;52.050;4.810;2023-02-26T16:11:33;5.70;99.90
37528;DHT22;23372;52.050;4.810;2023-02-26T16:14:00;5.70;99.90
37528;DHT22;23372;52.050;4.810;2023-02-26T16:16:32;5.60;99.90
37528;DHT22;23372;52.050;4.810;2023-02-26T16:18:59;5.60;99.90
37528;DHT22;23372;52.050;4.810;2023-02-26T16:21:30;5.50;99.90
37528;DHT22;23372;52.050;4.810;2023-02-26T16:23:57;5.50;99.90
37528;DHT22;23372;52.050;4.810;2023-02-26T16:26:36;5.40;99.90
37528;DHT22;23372;52.050;4.810;2023-02-26T16:29:09;5.40;99.90
37528;DHT22;23372;52.050;4.810;2023-02-26T16:31:35;5.30;99.90
37528;DHT22;23372;52.050;4.810;2023-02-26T16:36:46;5.20;99.90
37528;DHT22;23372;52.050;4.810;2023-02-26T16:39:21;5.10;99.90
37528;DHT22;23372;52.050;4.810;2023-02-26T16:42:01;5.10;99.90
37528;DHT22;23372;52.050;4.810;2023-02-26T16:44:44;5.00;99.90
37528;DHT22;23372;52.050;4.810;2023-02-26T16:47:10;4.90;99.90
37528;DHT22;23372;52.050;4.810;2023-02-26T16:49:38;4.90;99.90
37528;DHT22;23372;52.050;4.810;2023-02-26T16:52:05;4.90;99.90
37528;DHT22;23372;52.050;4.810;2023-02-26T16:54:37;4.80;99.90
37528;DHT22;23372;52.050;4.810;2023-02-26T16:59:36;4.60;99.90
37528;DHT22;23372;52.050;4.810;2023-02-26T17:02:10;4.50;99.90
37528;DHT22;23372;52.050;4.810;2023-02-26T17:04:38;4.50;99.90
37528;DHT22;23372;52.050;4.810;2023-02-26T17:07:24;4.40;99.90
37528;DHT22;23372;52.050;4.810;2023-02-26T17:09:52;4.40;99.90
37528;DHT22;23372;52.050;4.810;2023-02-26T17:12:37;4.30;99.90
37528;DHT22;23372;52.050;4.810;2023-02-26T17:15:34;4.30;99.90
37528;DHT22;23372;52.050;4.810;2023-02-26T17:17:57;4.30;99.90
37528;DHT22;23372;52.050;4.810;2023-02-26T17:20:24;4.20;99.90
37528;DHT22;23372;52.050;4.810;2023-02-26T17:22:51;4.20;99.90
37528;DHT22;23372;52.050;4.810;2023-02-26T17:25:18;4.10;99.90
37528;DHT22;23372;52.050;4.810;2023-02-26T17:27:45;4.10;99.90
37528;DHT22;23372;52.050;4.810;2023-02-26T17:30:14;4.10;99.90
37528;DHT22;23372;52.050;4.810;2023-02-26T17:32:41;4.10;99.90
37528;DHT22;23372;52.050;4.810;2023-02-26T17:35:08;4.00;99.90
37528;DHT22;23372;52.050;4.810;2023-02-26T17:37:33;4.00;99.90
37528;DHT22;23372;52.050;4.810;2023-02-26T17:40:00;4.00;99.90
37528;DHT22;23372;52.050;4.810;2023-02-26T17:42:26;4.00;99.90
37528;DHT22;23372;52.050;4.810;2023-02-26T17:44:52;3.90;99.90
37528;DHT22;23372;52.050;4.810;2023-02-26T17:47:23;3.90;99.90
37528;DHT22;23372;52.050;4.810;2023-02-26T17:49:50;3.80;99.90
37528;DHT22;23372;52.050;4.810;2023-02-26T17:52:16;3.70;99.90
37528;DHT22;23372;52.050;4.810;2023-02-26T17:54:42;3.70;99.90
37528;DHT22;23372;52.050;4.810;2023-02-26T17:57:19;3.70;99.90
37528;DHT22;23372;52.050;4.810;2023-02-26T17:59:45;3.60;99.90
37528;DHT22;23372;52.050;4.810;2023-02-26T18:02:20;3.60;99.90
37528;DHT22;23372;52.050;4.810;2023-02-26T18:04:47;3.50;99.90
37528;DHT22;23372;52.050;4.810;2023-02-26T18:07:16;3.50;99.90
37528;DHT22;23372;52.050;4.810;2023-02-26T18:09:43;3.40;99.90
37528;DHT22;23372;52.050;4.810;2023-02-26T18:12:18;3.40;99.90
37528;DHT22;23372;52.050;4.810;2023-02-26T18:14:44;3.30;99.90
37528;DHT22;23372;52.050;4.810;2023-02-26T18:17:17;3.20;99.90
37528;DHT22;23372;52.050;4.810;2023-02-26T18:19:42;3.20;99.90
37528;DHT22;23372;52.050;4.810;2023-02-26T18:22:11;3.10;99.90
37528;DHT22;23372;52.050;4.810;2023-02-26T18:24:38;3.10;99.90
37528;DHT22;23372;52.050;4.810;2023-02-26T18:27:05;3.10;99.90
37528;DHT22;23372;52.050;4.810;2023-02-26T18:29:30;3.10;99.90
37528;DHT22;23372;52.050;4.810;2023-02-26T18:31:56;3.10;99.90
37528;DHT22;23372;52.050;4.810;2023-02-26T18:34:24;3.00;99.90